Lintlaw, Canada
Current Conditions -  °F | °C
As of 2:00 AM on Tuesday 27 Jan 2015 (Local Time) from CYQV Reporting Station
Overcast Overcast  
Wind Chill: 23°   Ceiling: 17000
Heat Index: 30°   Visibility: 9mi
Dew Point: 27°   Wind: 8mph
Humidity: 86%   Direction: 200°SSW
Pressure: 29.84"   Gusts: NA
Location:  52.07°N, 103.25°W
Report Text: CYQV 270800Z AUTO 20007KT 9SM FEW095 OVC170 M01/M03 A2984 RMK SLP128
Loading
Personal Weather Stations






























Interactive Weather Map New forecast layout! Learn more

10-Day Weather Forecast

Advertisements
Track Severe Weather on mobile